createdAt,value
2019-03-27T00:02:25.014Z,26.73
2019-03-27T00:04:56.199Z,23.60
2019-03-27T00:07:27.573Z,25.30
2019-03-27T00:09:58.637Z,26.20
2019-03-27T00:12:29.633Z,24.95
2019-03-27T00:15:12.079Z,26.40
2019-03-27T00:17:33.334Z,24.65
2019-03-27T00:20:08.623Z,30.32
2019-03-27T00:22:39.723Z,30.35
2019-03-27T00:25:11.212Z,25.10
2019-03-27T00:27:42.251Z,28.45
2019-03-27T00:30:13.439Z,27.05
2019-03-27T00:32:44.458Z,27.02
2019-03-27T00:35:15.625Z,25.95
2019-03-27T00:37:46.456Z,29.50
2019-03-27T00:40:17.740Z,33.15
2019-03-27T00:42:50.080Z,24.75
2019-03-27T00:45:27.006Z,29.02
2019-03-27T00:47:53.780Z,27.70
2019-03-27T00:50:25.030Z,23.50
2019-03-27T00:52:56.108Z,23.40
2019-03-27T00:55:27.245Z,35.05
2019-03-27T00:57:58.262Z,27.10
2019-03-27T01:00:42.135Z,28.70
2019-03-27T01:03:13.585Z,28.25
2019-03-27T01:05:44.612Z,26.30
2019-03-27T01:08:16.578Z,26.12
2019-03-27T01:10:49.994Z,26.37
2019-03-27T01:13:21.002Z,23.50
2019-03-27T01:15:52.036Z,23.05
2019-03-27T01:18:23.023Z,26.75
2019-03-27T01:20:54.860Z,26.52
2019-03-27T01:23:25.725Z,27.95
2019-03-27T01:25:56.866Z,23.62
2019-03-27T01:28:28.794Z,24.07
2019-03-27T01:30:59.854Z,23.27
2019-03-27T01:33:30.843Z,22.80
2019-03-27T01:36:01.994Z,25.85
2019-03-27T01:38:32.934Z,26.45
2019-03-27T01:41:03.972Z,26.10
2019-03-27T01:43:35.018Z,25.05
2019-03-27T01:46:06.094Z,25.70
2019-03-27T01:48:37.045Z,25.45
2019-03-27T01:51:08.198Z,26.02
2019-03-27T01:53:39.241Z,31.50
2019-03-27T01:56:10.264Z,26.42
2019-03-27T01:58:41.283Z,25.10
2019-03-27T02:01:12.341Z,29.80
2019-03-27T02:03:46.366Z,27.85
2019-03-27T02:06:17.486Z,26.30
2019-03-27T02:08:48.741Z,30.82
2019-03-27T02:11:19.846Z,33.28
2019-03-27T02:13:50.927Z,32.75
2019-03-27T02:16:22.030Z,26.95
2019-03-27T02:18:53.068Z,27.20
2019-03-27T02:21:25.174Z,29.45
2019-03-27T02:23:56.182Z,27.50
2019-03-27T02:26:27.257Z,31.00
2019-03-27T02:28:58.218Z,26.65
2019-03-27T02:31:29.239Z,24.55
2019-03-27T02:34:00.199Z,30.82
2019-03-27T02:36:31.334Z,27.98
2019-03-27T02:39:02.499Z,27.67
2019-03-27T02:41:34.742Z,31.77
2019-03-27T02:44:05.747Z,33.75
2019-03-27T02:46:36.808Z,30.50
2019-03-27T02:49:07.838Z,30.05
2019-03-27T02:51:39.258Z,30.88
2019-03-27T02:54:10.654Z,33.08
2019-03-27T02:56:41.699Z,29.87
2019-03-27T02:59:12.688Z,34.67
2019-03-27T03:01:47.786Z,30.17
2019-03-27T03:04:16.715Z,33.08
2019-03-27T03:06:47.954Z,31.02
2019-03-27T03:09:19.122Z,35.33
2019-03-27T03:11:50.185Z,35.63
2019-03-27T03:14:24.834Z,35.52
2019-03-27T03:16:55.838Z,38.75
2019-03-27T03:19:27.217Z,36.50
2019-03-27T03:21:58.358Z,35.88
2019-03-27T03:24:29.588Z,37.80
2019-03-27T03:27:00.691Z,33.88
2019-03-27T03:29:32.706Z,31.07
2019-03-27T03:32:03.876Z,34.88
2019-03-27T03:34:34.935Z,30.85
2019-03-27T03:37:06.086Z,34.20
2019-03-27T03:39:37.141Z,37.25
2019-03-27T03:42:08.094Z,35.35
2019-03-27T03:44:39.248Z,33.58
2019-03-27T03:47:10.745Z,32.25
2019-03-27T03:49:41.829Z,39.25
2019-03-27T03:52:12.941Z,35.43
2019-03-27T03:54:43.972Z,36.03
2019-03-27T03:57:15.908Z,37.85
2019-03-27T03:59:47.717Z,39.25
2019-03-27T04:02:19.468Z,34.88
2019-03-27T04:04:53.073Z,37.88
2019-03-27T04:07:24.200Z,33.38
2019-03-27T04:09:55.398Z,37.00
2019-03-27T04:12:26.374Z,36.15
2019-03-27T04:14:57.354Z,42.70
2019-03-27T04:17:28.434Z,37.20
2019-03-27T04:19:59.684Z,37.25
2019-03-27T04:22:30.892Z,35.15
2019-03-27T04:25:02.042Z,40.33
2019-03-27T04:27:35.039Z,34.15
2019-03-27T04:30:06.035Z,38.20
2019-03-27T04:32:37.157Z,38.85
2019-03-27T04:35:08.253Z,42.03
2019-03-27T04:37:39.502Z,37.93
2019-03-27T04:40:11.563Z,36.73
2019-03-27T04:42:43.848Z,35.17
2019-03-27T04:45:17.121Z,37.15
2019-03-27T04:47:48.311Z,42.40
2019-03-27T04:50:19.375Z,41.73
2019-03-27T04:52:50.621Z,36.83
2019-03-27T04:55:21.584Z,35.10
2019-03-27T04:57:52.679Z,38.67
2019-03-27T05:00:23.790Z,42.50
2019-03-27T05:02:55.649Z,38.13
2019-03-27T05:05:26.635Z,39.88
2019-03-27T05:07:57.898Z,43.58
2019-03-27T05:10:28.920Z,40.98
2019-03-27T05:13:00.025Z,38.73
2019-03-27T05:15:31.420Z,33.38
2019-03-27T05:18:02.498Z,37.00
2019-03-27T05:20:33.640Z,40.70
2019-03-27T05:23:04.859Z,37.95
2019-03-27T05:25:36.557Z,38.50
2019-03-27T05:28:07.575Z,41.98
2019-03-27T05:30:38.645Z,38.95
2019-03-27T05:33:10.936Z,39.95
2019-03-27T05:35:42.073Z,42.65
2019-03-27T05:38:13.389Z,40.08
2019-03-27T05:40:44.402Z,30.80
2019-03-27T05:43:15.566Z,36.53
2019-03-27T05:45:46.754Z,34.70
2019-03-27T05:48:17.806Z,30.12
2019-03-27T05:50:49.072Z,41.00
2019-03-27T05:53:20.491Z,35.75
2019-03-27T05:55:51.509Z,34.83
2019-03-27T05:58:22.651Z,38.88
2019-03-27T06:00:53.670Z,39.92
2019-03-27T06:03:24.648Z,39.00
2019-03-27T06:05:55.785Z,32.60
2019-03-27T06:08:27.046Z,31.82
2019-03-27T06:10:58.155Z,38.55
2019-03-27T06:13:29.362Z,37.03
2019-03-27T06:16:00.458Z,34.67
2019-03-27T06:18:31.735Z,42.45
2019-03-27T06:21:02.727Z,41.85
2019-03-27T06:23:34.046Z,38.05
2019-03-27T06:26:05.247Z,39.58
2019-03-27T06:28:36.436Z,40.48
2019-03-27T06:31:07.882Z,41.75
2019-03-27T06:33:39.136Z,42.03
2019-03-27T06:36:10.146Z,41.35
2019-03-27T06:38:41.479Z,44.75
2019-03-27T06:41:12.521Z,40.63
2019-03-27T06:43:43.723Z,39.40
2019-03-27T06:46:17.501Z,46.77
2019-03-27T06:48:48.703Z,46.08
2019-03-27T06:51:20.229Z,45.45
2019-03-27T06:53:53.650Z,42.75
2019-03-27T06:56:24.716Z,41.28
2019-03-27T06:58:55.845Z,43.73
2019-03-27T07:01:27.839Z,47.50
2019-03-27T07:04:10.005Z,43.05
2019-03-27T07:06:31.878Z,38.63
2019-03-27T07:09:03.010Z,38.60
2019-03-27T07:11:34.037Z,42.62
2019-03-27T07:14:13.293Z,46.00
2019-03-27T07:16:45.247Z,46.15
2019-03-27T07:19:17.106Z,42.75
2019-03-27T07:21:48.456Z,44.58
2019-03-27T07:24:20.349Z,42.10
2019-03-27T07:26:51.531Z,44.70
2019-03-27T07:29:22.870Z,42.25
2019-03-27T07:31:53.993Z,50.98
2019-03-27T07:34:25.967Z,45.95
2019-03-27T07:36:56.981Z,52.25
2019-03-27T07:39:28.076Z,46.50
2019-03-27T07:41:59.052Z,46.05
2019-03-27T07:44:30.235Z,53.23
2019-03-27T07:47:01.415Z,44.27
2019-03-27T07:49:33.616Z,43.10
2019-03-27T07:52:04.572Z,36.70
2019-03-27T07:54:37.526Z,40.17
2019-03-27T07:57:08.591Z,44.63
2019-03-27T07:59:39.654Z,39.20
2019-03-27T08:02:10.813Z,41.65
2019-03-27T08:04:41.835Z,44.40
2019-03-27T08:07:25.916Z,34.43
2019-03-27T08:09:45.575Z,42.65
2019-03-27T08:12:16.808Z,33.10
2019-03-27T08:14:53.664Z,33.28
2019-03-27T08:17:24.671Z,36.53
2019-03-27T08:19:55.754Z,40.83
2019-03-27T08:22:27.003Z,35.28
2019-03-27T08:24:58.118Z,40.10
2019-03-27T08:27:33.135Z,33.88
2019-03-27T08:30:06.853Z,34.67
2019-03-27T08:32:37.898Z,28.35
2019-03-27T08:35:10.303Z,21.57
2019-03-27T08:37:41.379Z,18.62
2019-03-27T08:40:13.731Z,26.95
2019-03-27T08:42:44.652Z,20.70
2019-03-27T08:45:15.859Z,25.20
2019-03-27T08:47:46.895Z,21.73
2019-03-27T08:50:18.635Z,25.70
2019-03-27T08:52:49.724Z,27.40
2019-03-27T08:55:24.002Z,26.40
2019-03-27T08:57:55.205Z,23.42
2019-03-27T09:00:49.389Z,27.58
2019-03-27T09:03:20.512Z,25.52
2019-03-27T09:05:52.763Z,31.23
2019-03-27T09:08:23.789Z,27.05
2019-03-27T09:10:55.080Z,25.90
2019-03-27T09:13:26.213Z,25.90
2019-03-27T09:15:57.489Z,26.73
2019-03-27T09:18:28.522Z,21.62
2019-03-27T09:20:59.966Z,26.02
2019-03-27T09:23:31.011Z,21.90
2019-03-27T09:26:02.411Z,18.32
2019-03-27T09:28:33.516Z,19.80
2019-03-27T09:31:04.689Z,16.90
2019-03-27T09:33:35.584Z,19.20
2019-03-27T09:36:07.085Z,16.07
2019-03-27T09:38:38.360Z,17.23
2019-03-27T09:41:09.410Z,13.88
2019-03-27T09:43:40.624Z,18.67
2019-03-27T09:46:11.802Z,16.77
2019-03-27T09:48:43.708Z,14.07
2019-03-27T09:51:14.842Z,16.75
2019-03-27T09:53:45.728Z,16.07
2019-03-27T09:56:19.704Z,16.52
2019-03-27T09:58:50.859Z,15.65
2019-03-27T10:01:21.856Z,18.07
2019-03-27T10:03:52.745Z,15.60
2019-03-27T10:06:23.894Z,22.17
2019-03-27T10:08:55.024Z,15.93
2019-03-27T10:11:26.164Z,17.55
2019-03-27T10:13:57.394Z,19.82
2019-03-27T10:16:28.596Z,22.37
2019-03-27T10:18:59.792Z,21.62
2019-03-27T10:21:31.185Z,20.23
2019-03-27T10:24:02.250Z,17.27
2019-03-27T10:26:33.416Z,17.85
2019-03-27T10:29:04.956Z,16.42
2019-03-27T10:31:35.884Z,18.50
2019-03-27T10:34:06.920Z,18.80
2019-03-27T10:36:38.074Z,13.18
2019-03-27T10:39:09.427Z,11.75
2019-03-27T10:41:40.578Z,10.82
2019-03-27T10:44:11.619Z,10.18
2019-03-27T10:46:42.643Z,10.23
2019-03-27T10:49:13.679Z,9.00
2019-03-27T10:51:45.257Z,11.55
2019-03-27T10:54:16.336Z,9.80
2019-03-27T10:56:47.647Z,11.45
2019-03-27T10:59:18.685Z,10.32
2019-03-27T11:01:49.746Z,11.48
2019-03-27T11:04:20.816Z,14.55
2019-03-27T11:06:51.951Z,14.80
2019-03-27T11:09:23.057Z,14.75
2019-03-27T11:11:54.518Z,16.20
2019-03-27T11:14:37.242Z,16.12
2019-03-27T11:16:58.440Z,15.28
2019-03-27T11:19:29.645Z,12.28
2019-03-27T11:22:01.280Z,16.23
2019-03-27T11:24:33.082Z,14.80
2019-03-27T11:27:04.369Z,13.68
2019-03-27T11:29:35.339Z,16.57
2019-03-27T11:32:06.504Z,14.95
2019-03-27T11:34:37.453Z,15.65
2019-03-27T11:37:08.600Z,13.22
2019-03-27T11:39:40.012Z,13.03
2019-03-27T11:42:11.212Z,9.00
2019-03-27T11:44:42.079Z,13.93
2019-03-27T11:47:13.627Z,12.05
2019-03-27T11:49:44.746Z,10.98
2019-03-27T11:52:15.975Z,11.35
2019-03-27T11:54:47.267Z,10.18
2019-03-27T11:57:18.477Z,9.90
2019-03-27T11:59:54.319Z,12.33
2019-03-27T12:02:22.903Z,10.30
2019-03-27T12:04:54.092Z,12.28
2019-03-27T12:07:25.311Z,14.47
2019-03-27T12:09:56.351Z,12.53
2019-03-27T12:12:27.522Z,16.73
2019-03-27T12:14:58.667Z,11.10
2019-03-27T12:17:29.617Z,9.98
2019-03-27T12:20:00.662Z,10.70
2019-03-27T12:22:33.413Z,8.98
2019-03-27T12:25:04.413Z,7.45
2019-03-27T12:27:35.628Z,7.17
2019-03-27T12:30:07.670Z,7.80
2019-03-27T12:32:38.682Z,10.32
2019-03-27T12:35:09.818Z,11.50
2019-03-27T12:37:41.141Z,13.50
2019-03-27T12:40:12.246Z,12.60
2019-03-27T12:42:43.251Z,12.75
2019-03-27T12:45:14.690Z,9.45
2019-03-27T12:47:45.802Z,10.03
2019-03-27T12:50:17.018Z,9.75
2019-03-27T12:52:48.332Z,12.15
2019-03-27T12:55:19.470Z,10.03
2019-03-27T12:57:50.594Z,10.70
2019-03-27T13:00:21.975Z,7.87
2019-03-27T13:02:53.086Z,8.15
2019-03-27T13:05:24.162Z,10.72
2019-03-27T13:07:55.486Z,10.88
2019-03-27T13:10:26.463Z,10.70
2019-03-27T13:12:57.921Z,8.78
2019-03-27T13:15:28.988Z,9.15
2019-03-27T13:18:00.074Z,9.68
2019-03-27T13:20:31.155Z,10.93
2019-03-27T13:23:05.096Z,14.10
2019-03-27T13:25:36.250Z,12.30
2019-03-27T13:28:07.461Z,8.38
2019-03-27T13:30:38.996Z,10.50
2019-03-27T13:33:11.241Z,13.15
2019-03-27T13:35:42.539Z,11.05
2019-03-27T13:38:14.143Z,10.00
2019-03-27T13:40:45.184Z,9.50
2019-03-27T13:43:16.205Z,9.50
2019-03-27T13:45:47.170Z,12.90
2019-03-27T13:48:19.318Z,11.70
2019-03-27T13:50:50.255Z,10.35
2019-03-27T13:53:21.463Z,12.98
2019-03-27T13:55:52.469Z,10.08
2019-03-27T13:58:23.679Z,10.68
2019-03-27T14:00:54.584Z,11.03
2019-03-27T14:03:25.631Z,7.75
2019-03-27T14:05:56.623Z,8.80
2019-03-27T14:08:27.733Z,8.65
2019-03-27T14:10:58.894Z,10.25
2019-03-27T14:13:29.886Z,13.70
2019-03-27T14:16:01.330Z,11.53
2019-03-27T14:18:32.367Z,10.13
2019-03-27T14:21:03.859Z,11.43
2019-03-27T14:23:37.643Z,13.30
2019-03-27T14:26:08.634Z,9.55
2019-03-27T14:28:39.611Z,9.40
2019-03-27T14:31:10.731Z,10.10
2019-03-27T14:33:41.804Z,9.38
2019-03-27T14:36:12.808Z,9.95
2019-03-27T14:38:43.907Z,11.43
2019-03-27T14:41:14.712Z,12.07
2019-03-27T14:43:47.313Z,9.70
2019-03-27T14:46:19.203Z,11.30
2019-03-27T14:48:50.223Z,12.45
2019-03-27T14:51:21.252Z,11.22
2019-03-27T14:53:52.663Z,12.95
2019-03-27T14:56:23.870Z,13.75
2019-03-27T14:58:54.872Z,10.20
2019-03-27T15:01:25.842Z,8.18
2019-03-27T15:03:56.974Z,14.20
2019-03-27T15:06:28.325Z,11.45
2019-03-27T15:08:59.946Z,9.73
2019-03-27T15:11:31.059Z,11.50
2019-03-27T15:14:02.328Z,9.83
2019-03-27T15:16:33.380Z,16.27
2019-03-27T15:19:04.557Z,12.35
2019-03-27T15:21:36.072Z,14.78
2019-03-27T15:24:07.840Z,12.58
2019-03-27T15:26:38.782Z,9.80
2019-03-27T15:29:09.968Z,10.93
2019-03-27T15:31:45.416Z,13.32
2019-03-27T15:34:16.684Z,16.45
2019-03-27T15:36:47.790Z,11.75
2019-03-27T15:39:20.463Z,14.47
2019-03-27T15:41:51.581Z,8.00
2019-03-27T15:44:23.814Z,10.05
2019-03-27T15:46:54.863Z,10.68
2019-03-27T15:49:25.900Z,9.20
2019-03-27T15:51:56.942Z,7.20
2019-03-27T15:54:31.411Z,11.48
2019-03-27T15:57:05.637Z,17.57
2019-03-27T15:59:36.714Z,12.10
2019-03-27T16:02:12.014Z,12.80
2019-03-27T16:04:43.092Z,10.20
2019-03-27T16:07:14.211Z,11.05
2019-03-27T16:09:47.503Z,14.43
2019-03-27T16:12:19.598Z,14.10
2019-03-27T16:14:50.656Z,15.70
2019-03-27T16:17:22.497Z,12.95
2019-03-27T16:19:54.553Z,13.13
2019-03-27T16:22:25.594Z,14.55
2019-03-27T16:24:56.721Z,13.08
2019-03-27T16:27:27.606Z,11.35
2019-03-27T16:29:58.906Z,12.82
2019-03-27T16:32:29.909Z,10.23
2019-03-27T16:35:01.119Z,8.58
2019-03-27T16:37:32.072Z,14.58
2019-03-27T16:40:06.084Z,15.72
2019-03-27T16:42:37.113Z,11.78
2019-03-27T16:45:09.225Z,14.25
2019-03-27T16:47:40.413Z,10.48
2019-03-27T16:50:12.310Z,13.10
2019-03-27T16:52:43.669Z,13.62
2019-03-27T16:55:15.029Z,12.47
2019-03-27T16:57:46.037Z,10.38
2019-03-27T17:00:17.166Z,17.67
2019-03-27T17:02:48.130Z,17.62
2019-03-27T17:05:19.259Z,15.95
2019-03-27T17:07:50.256Z,12.30
2019-03-27T17:10:21.881Z,10.32
2019-03-27T17:12:53.005Z,14.28
2019-03-27T17:15:24.160Z,9.28
2019-03-27T17:17:55.490Z,15.98
2019-03-27T17:20:26.661Z,12.20
2019-03-27T17:22:57.869Z,11.85
2019-03-27T17:25:28.962Z,11.57
2019-03-27T17:28:00.000Z,11.97
2019-03-27T17:30:32.078Z,14.13
2019-03-27T17:33:03.321Z,12.68
2019-03-27T17:35:34.442Z,9.05
2019-03-27T17:38:05.425Z,14.43
2019-03-27T17:40:36.685Z,10.48
2019-03-27T17:43:07.674Z,9.15
2019-03-27T17:45:39.029Z,12.63
2019-03-27T17:48:10.044Z,14.53
2019-03-27T17:50:41.414Z,13.60
2019-03-27T17:53:12.383Z,13.68
2019-03-27T17:55:43.471Z,13.55
2019-03-27T17:58:14.557Z,13.68
2019-03-27T18:00:52.863Z,13.80
2019-03-27T18:03:23.899Z,12.35
2019-03-27T18:05:55.092Z,11.35
2019-03-27T18:08:26.051Z,8.50
2019-03-27T18:10:57.398Z,12.18
2019-03-27T18:13:29.589Z,11.50
2019-03-27T18:16:00.697Z,16.37
2019-03-27T18:18:31.850Z,11.97
2019-03-27T18:21:03.280Z,12.82
2019-03-27T18:23:45.256Z,15.08
2019-03-27T18:26:07.303Z,11.90
2019-03-27T18:28:38.481Z,13.43
2019-03-27T18:31:09.527Z,11.75
2019-03-27T18:33:40.653Z,16.80
2019-03-27T18:36:11.604Z,15.08
2019-03-27T18:38:45.693Z,14.10
2019-03-27T18:41:15.570Z,13.68
2019-03-27T18:43:46.685Z,13.62
2019-03-27T18:46:18.041Z,12.88
2019-03-27T18:48:49.145Z,13.25
2019-03-27T18:51:20.723Z,19.15
2019-03-27T18:53:59.449Z,18.82
2019-03-27T18:56:24.851Z,17.50
2019-03-27T18:58:56.000Z,15.38
2019-03-27T19:01:27.119Z,16.27
2019-03-27T19:03:58.163Z,16.75
2019-03-27T19:06:29.240Z,14.53
2019-03-27T19:09:00.337Z,16.90
2019-03-27T19:11:31.567Z,14.53
2019-03-27T19:14:02.669Z,17.30
2019-03-27T19:16:33.898Z,15.85
2019-03-27T19:19:06.559Z,14.45
2019-03-27T19:21:37.889Z,19.48
2019-03-27T19:24:16.200Z,18.85
2019-03-27T19:26:43.305Z,9.13
2019-03-27T19:29:14.743Z,20.68
2019-03-27T19:31:46.144Z,16.50
2019-03-27T19:34:17.277Z,18.48
2019-03-27T19:36:48.305Z,21.90
2019-03-27T19:39:20.281Z,17.10
2019-03-27T19:41:51.799Z,19.12
2019-03-27T19:44:22.921Z,16.17
2019-03-27T19:46:54.025Z,17.10
2019-03-27T19:49:25.133Z,18.35
2019-03-27T19:51:56.281Z,14.87
2019-03-27T19:54:29.197Z,12.00
2019-03-27T19:57:00.551Z,12.53
2019-03-27T19:59:31.848Z,16.77
2019-03-27T20:02:03.066Z,13.50
2019-03-27T20:04:34.171Z,13.58
2019-03-27T20:07:05.285Z,13.20
2019-03-27T20:09:36.342Z,10.65
2019-03-27T20:12:07.486Z,13.75
2019-03-27T20:14:38.618Z,15.38
2019-03-27T20:17:09.672Z,17.82
2019-03-27T20:19:41.757Z,11.53
2019-03-27T20:22:13.110Z,12.95
2019-03-27T20:24:44.580Z,12.82
2019-03-27T20:27:15.696Z,18.62
2019-03-27T20:29:46.803Z,13.98
2019-03-27T20:32:17.933Z,13.22
2019-03-27T20:34:49.046Z,14.35
2019-03-27T20:37:20.286Z,13.03
2019-03-27T20:39:51.333Z,11.38
2019-03-27T20:42:22.404Z,9.93
2019-03-27T20:44:53.772Z,11.70
2019-03-27T20:47:25.834Z,12.10
2019-03-27T20:49:56.863Z,14.05
2019-03-27T20:52:27.972Z,14.93
2019-03-27T20:54:59.034Z,13.15
2019-03-27T20:57:30.569Z,10.35
2019-03-27T21:00:01.699Z,13.20
2019-03-27T21:02:34.640Z,12.68
2019-03-27T21:05:05.832Z,14.85
2019-03-27T21:07:37.407Z,11.25
2019-03-27T21:10:09.194Z,13.00
2019-03-27T21:12:40.548Z,11.50
2019-03-27T21:15:11.622Z,12.10
2019-03-27T21:17:43.049Z,12.88
2019-03-27T21:20:14.461Z,11.60
2019-03-27T21:22:50.126Z,16.37
2019-03-27T21:25:21.327Z,14.00
2019-03-27T21:27:52.873Z,18.55
2019-03-27T21:30:24.010Z,14.53
2019-03-27T21:32:55.771Z,16.27
2019-03-27T21:35:26.856Z,16.62
2019-03-27T21:37:58.160Z,14.10
2019-03-27T21:40:29.180Z,16.00
2019-03-27T21:43:00.214Z,11.03
2019-03-27T21:45:32.461Z,16.93
2019-03-27T21:48:03.768Z,13.22
2019-03-27T21:50:35.996Z,15.32
2019-03-27T21:53:07.103Z,14.70
2019-03-27T21:55:42.912Z,15.70
2019-03-27T21:58:11.822Z,17.07
2019-03-27T22:00:43.059Z,19.10
2019-03-27T22:03:14.044Z,17.27
2019-03-27T22:05:45.374Z,24.60
2019-03-27T22:08:16.371Z,19.00
2019-03-27T22:10:47.335Z,18.80
2019-03-27T22:13:18.428Z,14.05
2019-03-27T22:15:50.275Z,19.23
2019-03-27T22:18:21.373Z,17.32
2019-03-27T22:20:52.630Z,14.30
2019-03-27T22:23:23.802Z,13.40
2019-03-27T22:25:55.871Z,19.35
2019-03-27T22:28:26.830Z,12.18
2019-03-27T22:30:58.189Z,16.07
2019-03-27T22:33:29.246Z,16.00
2019-03-27T22:36:00.384Z,21.42
2019-03-27T22:38:32.453Z,25.52
2019-03-27T22:41:03.762Z,13.20
2019-03-27T22:43:34.803Z,14.78
2019-03-27T22:46:05.892Z,17.05
2019-03-27T22:48:36.831Z,16.10
2019-03-27T22:51:08.133Z,18.02
2019-03-27T22:53:39.276Z,14.60
2019-03-27T22:56:10.534Z,14.85
2019-03-27T22:58:41.606Z,19.77
2019-03-27T23:01:12.744Z,16.00
2019-03-27T23:03:45.390Z,15.63
2019-03-27T23:06:17.953Z,15.00
2019-03-27T23:08:49.123Z,14.78
2019-03-27T23:11:20.196Z,16.82
2019-03-27T23:13:52.790Z,19.00
2019-03-27T23:16:23.803Z,16.35
2019-03-27T23:18:54.734Z,11.88
2019-03-27T23:21:28.435Z,18.07
2019-03-27T23:24:01.474Z,18.52
2019-03-27T23:26:32.593Z,20.65
2019-03-27T23:29:04.342Z,14.70
2019-03-27T23:31:35.603Z,18.55
2019-03-27T23:34:06.607Z,17.57
2019-03-27T23:36:37.677Z,15.60
2019-03-27T23:39:09.337Z,17.80
2019-03-27T23:41:40.494Z,18.73
2019-03-27T23:44:14.117Z,16.05
2019-03-27T23:46:46.451Z,15.93
2019-03-27T23:49:17.428Z,25.85
2019-03-27T23:51:49.868Z,13.75
2019-03-27T23:54:20.978Z,14.95
2019-03-27T23:56:52.418Z,15.70
2019-03-27T23:59:23.491Z,17.65
